Nearby METAR Reports

 

GCLP - Las Palmas/Gando, Spain
Distance from station: NE 26km
Updated: 07/04/2020 12:30
Few Clouds
Few Clouds
 Wind from NE
Wind: NE 24 km/h
Temperature: 23°C
Dew Point: 17°C
Humidity: 69%
Barometer: 1022 hPa
Clouds: Few Clouds
Visibility: 10 km
Cloud details: Few Clouds 610 m
2020/04/07 12:30 GCLP 071230Z 04013KT 010V070 9999 FEW020 23/17 Q1022 NOSIG
GCTS - Tenerife Sur/Rei, Spain
Distance from station: WNW 102km
Updated: 07/04/2020 12:30
Few Clouds
Few Clouds
 Wind from ESE
Wind: ESE 24 km/h
Temperature: 23°C
Dew Point: 16°C
Humidity: 65%
Barometer: 1021 hPa
Clouds: Few Clouds
Visibility: 10 km
Cloud details: Few Clouds 610 m
2020/04/07 12:30 GCTS 071230Z 11013KT 080V150 9999 FEW020 23/16 Q1021 NOSIG
 
GCXO - Tenerife/Los Rod, Spain
Distance from station: NW 110km
Updated: 07/04/2020 12:30
Few Clouds
Few Clouds
 Wind from ESE
Wind: ESE 11 km/h
Temperature: 21°C
Dew Point: 16°C
Humidity: 73%
Barometer: 1023 hPa
Clouds: Few Clouds
Visibility: 10 km
Cloud details: Few Clouds 457 m
2020/04/07 12:30 GCXO 071230Z 11006KT 070V180 9999 FEW015 21/16 Q1023 NOSIG
GCGM - La Gomera Arpt, Spain
Distance from station: W 164km
Updated: 07/04/2020 12:30
Overcast
Overcast
 Wind from SSW
Wind: SSW 7 km/h
Temperature: 20°C
Dew Point: 17°C
Humidity: 83%
Barometer: 1022 hPa
Clouds: Overcast
Visibility: 10 km
Cloud details: Few Clouds 152 m
Overcast 427 m
2020/04/07 12:30 GCGM 071230Z AUTO 21004KT 170V290 9999 FEW005 OVC014 20/17 Q1022 RMK R09/18004KT 120V220 ARP/21004KT 120V250
 
GCFV - Fuerteventura Ar, Spain
Distance from station: ENE 183km
Updated: 07/04/2020 12:30
Few Clouds
Few Clouds
 Wind from ENE
Wind: ENE 19 km/h
Temperature: 23°C
Dew Point: 17°C
Humidity: 69%
Barometer: 1021 hPa
Clouds: Few Clouds
Visibility: 10 km
Cloud details: Few Clouds 762 m
2020/04/07 12:30 GCFV 071230Z 06010KT 9999 FEW025 23/17 Q1021
GCHI - Hierro Airport, Spain
Distance from station: W 226km
Updated: 07/04/2020 12:30
Few Clouds
Few Clouds
 Wind from SSE
Wind: SSE 13 km/h
Temperature: 24°C
Dew Point: 17°C
Humidity: 65%
Barometer: 1022 hPa
Clouds: Few Clouds
Visibility: 10 km
Cloud details: Few Clouds 610 m
2020/04/07 12:30 GCHI 071230Z 15007KT 9999 FEW020 24/17 Q1022
 
GCLA - La Palma Airport, Spain
Distance from station: WNW 233km
Updated: 07/04/2020 12:30
Partly cloudy
Partly cloudy
 Wind from ESE
Wind: ESE 9 km/h
Temperature: 23°C
Dew Point: 17°C
Humidity: 69%
Barometer: 1022 hPa
Clouds: Partly cloudy
Visibility: 10 km
Cloud details: Partly cloudy 792 m
2020/04/07 12:30 GCLA 071230Z 12005KT 070V170 9999 SCT026 23/17 Q1022
GCRR - Arrecife/Lanzaro, Spain
Distance from station: NE 234km
Updated: 07/04/2020 12:30
Few Clouds
Few Clouds
 Wind from E
Wind: E 24 km/h
Temperature: 21°C
Dew Point: 16°C
Humidity: 73%
Barometer: 1021 hPa
Clouds: Few Clouds
Visibility: 10 km
Cloud details: Few Clouds 1036 m
2020/04/07 12:30 GCRR 071230Z 08013KT 9999 FEW034 21/16 Q1021
 
LPMA - Funchal/Madeira, Portugal
Distance from station: NNW 556km
Updated: 07/04/2020 12:30
Partly cloudy
Partly cloudy
 Wind from SSW
Wind: SSW 30 km/h
Temperature: 21°C
Dew Point: 18°C
Humidity: 83%
Barometer: 1021 hPa
Clouds: Partly cloudy
Visibility: 10 km
Cloud details: Partly cloudy 366 m
2020/04/07 12:30 LPMA 071230Z 20016KT 9999 SCT012 21/18 Q1021
LPPS - Porto Santo Isla, Portugal
Distance from station: N 594km
Updated: 07/04/2020 12:30
Partly cloudy
Partly cloudy
 Wind from SSE
Wind: SSE 15 km/h
Temperature: 21°C
Dew Point: 18°C
Humidity: 83%
Barometer: 1021 hPa
Clouds: Partly cloudy
Visibility: 10 km
Cloud details: Partly cloudy 305 m
2020/04/07 12:30 LPPS 071230Z 16008KT 130V200 9999 SCT010 21/18 Q1021